الصفحة الرئيسية
METAR-TAF:

METAR-TAF

مطار :

Pueblo Memorial Airport

Pueblo, كولورادو, الولايات المتحدة

دائرة عرض: 38-17-24N, خط طول: 104-29-54W, ارتفاع: 1440 متر

مراقبة الطقس الحالي

تاريخ ووقت الإصدار 51 دقيقة قبل الساعة 04:53UTC
رياح هادئة
درجة الحرارة -3°درجة مئوية
الرطوبة 80%
ضغط 1023 hPa
الرؤية: 16.1 كم
سماء صافية

METAR: KPUB 210453Z 00000KT 10SM CLR M03/M06 A3021 RMK AO2 SLP244 T10331061

زمن: 22:44 (05:44 UTC)

توقعات

تاريخ ووقت الإصدار 23 دقيقة قبل الساعة 05:21UTC
التوقعات صالحة من21 الساعة 06 UTC إلى 22 الساعة 06 UTC
ريح 5 عقدةمن اتجاهات متغيرة
الرؤية: 10 كم
سماء صافية
من 21 الساعة 2100 UTC
ريح 7 عقدة من الشرق/الجنوب الشرقي
الرؤية: 10 كم
سماء صافية
من 22 الساعة 0200 UTC
ريح 5 عقدةمن اتجاهات متغيرة
الرؤية: 10 كم
سماء صافية

TAF: KPUB 210521Z 2106/2206 VRB05KT P6SM SKC FM212100 12007KT P6SM SKC FM220200 VRB05KT P6SM SKC

أرصاد الطقس والتوقعات من أكثر من 4000 مطار (تقارير الطقس للمطار METAR والتنبؤ بالطقس بالمطارTAF).

المحطات المتاحة هي النقط الصفراء والحمراء على الخريطة.

حرك المؤشر فوق النقطة لمعرفة اسم المحطة.

ثم انقر لمعرفة أرصاد وتوقعات الطقس.

لتغيير الخارطة: اضغط على الأزرار الخضراء مع رمز الصليب الأسود للتكبير. على الزر الأخضر مع شرطة للتصغير، أو على الأسهم الخضراء للخرائط المجاورة.


METAR-TAF: